Time;durP1;ratioP1;P1;durP2;ratioP2;P2;SDS_P1;SDS_P2;PMS_P1;PMS_P2;Temp;Humidity;BMP_temperature;BMP_pressure;BME280_temperature;BME280_humidity;BME280_pressure;Samples;Min_cycle;Max_cycle;Signal;HPM_P1;HPM_P2
2022/12/02 00:01:01;;;;;;;;;;;;;;;1.21;100.00;102628.94;2088471;28;29884;-71
2022/12/02 00:02:24;;;;;;;;;;;;;;;1.21;100.00;102623.66;2087956;28;37479;-70
2022/12/02 00:03:25;;;;;;;;;;;;;;;1.22;100.00;102622.81;2080294;28;35746;-70
2022/12/02 00:04:27;;;;;;;;;;;;;;;1.21;100.00;102616.63;2080895;28;20582;-70
2022/12/02 00:05:33;;;;;;;;;;;;;;;1.22;100.00;102620.16;2079683;28;40789;-70
2022/12/02 00:06:36;;;;;;;;;;;;;;;1.21;100.00;102621.91;2071902;28;20480;-69
2022/12/02 00:07:37;;;;;;;;;;;;;;;1.21;100.00;102613.09;2071436;28;32445;-70
2022/12/02 00:08:39;;;;;;;;;;;;;;;1.21;100.00;102623.66;2079787;28;33096;-70
2022/12/02 00:09:42;;;;;;;;;;;;;;;1.21;100.00;102613.09;2079865;28;27122;-70
2022/12/02 00:10:44;;;;;;;;;;;;;;;1.19;100.00;102620.94;2079658;28;41474;-70
2022/12/02 00:11:47;;;;;;;;;;;;;;;1.20;100.00;102619.19;2080003;28;39762;-71
2022/12/02 00:12:49;;;;;;;;;;;;;;;1.20;100.00;102622.72;2079750;28;36838;-70
2022/12/02 00:13:51;;;;;;;;;;;;;;;1.21;100.00;102618.38;2079655;28;40694;-70
2022/12/02 00:15:02;;;;;;;;;;;;;;;1.19;100.00;102617.41;2079942;28;31834;-70
2022/12/02 00:16:04;;;;;;;;;;;;;;;1.20;100.00;102622.72;2079977;28;33224;-70
2022/12/02 00:17:05;;;;;;;;;;;;;;;1.19;100.00;102625.34;2080347;28;30588;-70
2022/12/02 00:18:14;;;;;;;;;;;;;;;1.22;100.00;102620.16;2080423;28;19913;-70
2022/12/02 00:19:15;;;;;;;;;;;;;;;1.21;100.00;102621.00;2080748;28;19926;-70
2022/12/02 00:20:17;;;;;;;;;;;;;;;1.22;100.00;102622.81;2080182;28;31508;-71
2022/12/02 00:21:20;;;;;;;;;;;;;;;1.21;100.00;102610.47;2079478;28;35851;-70
2022/12/02 00:22:24;;;;;;;;;;;;;;;1.22;100.00;102609.59;2080276;28;35994;-71
2022/12/02 00:23:25;;;;;;;;;;;;;;;1.22;100.00;102618.44;2080049;28;32518;-71
2022/12/02 00:24:27;;;;;;;;;;;;;;;1.23;100.00;102607.03;2072097;28;20040;-70
2022/12/02 00:25:28;;;;;;;;;;;;;;;1.23;100.00;102611.41;2079783;28;31173;-70
2022/12/02 00:26:32;;;;;;;;;;;;;;;1.21;100.00;102611.34;2088590;28;42041;-70
2022/12/02 00:27:34;;;;;;;;;;;;;;;1.20;100.00;102617.44;2079709;28;19921;-70
2022/12/02 00:28:36;;;;;;;;;;;;;;;1.19;100.00;102606.88;2079422;28;34970;-70
2022/12/02 00:29:37;;;;;;;;;;;;;;;1.19;100.00;102620.94;2088637;28;21272;-71
2022/12/02 00:30:39;;;;;;;;;;;;;;;1.19;100.00;102610.41;2087936;28;28383;-70
2022/12/02 00:31:41;;;;;;;;;;;;;;;1.19;100.00;102615.66;2088795;28;19941;-71
2022/12/02 00:32:43;;;;;;;;;;;;;;;1.19;100.00;102610.41;2088141;28;31579;-70
2022/12/02 00:33:45;;;;;;;;;;;;;;;1.20;100.00;102603.38;2088287;28;38059;-71
2022/12/02 00:34:47;;;;;;;;;;;;;;;1.20;100.00;102606.00;2088854;28;19925;-70
2022/12/02 00:35:48;;;;;;;;;;;;;;;1.18;100.00;102615.59;2087959;28;37452;-71
2022/12/02 00:36:50;;;;;;;;;;;;;;;1.21;100.00;102602.56;2088594;28;27508;-70
2022/12/02 00:37:52;;;;;;;;;;;;;;;1.20;100.00;102611.28;2088618;28;23459;-70
2022/12/02 00:38:54;;;;;;;;;;;;;;;1.20;100.00;102613.91;2088579;28;19992;-70
2022/12/02 00:39:56;;;;;;;;;;;;;;;1.20;100.00;102601.63;2088702;28;19925;-71
2022/12/02 00:40:57;;;;;;;;;;;;;;;1.22;100.00;102607.91;2088533;28;34367;-70
2022/12/02 00:41:59;;;;;;;;;;;;;;;1.21;100.00;102613.09;2088714;28;20870;-71
2022/12/02 00:47:04;;;;;;;;;;;;;;;1.22;100.00;102599.06;2084047;28;19934;-70
2022/12/02 00:48:06;;;;;;;;;;;;;;;1.22;100.00;102593.78;2080939;28;23373;-70
2022/12/02 00:49:11;;;;;;;;;;;;;;;1.22;100.00;102604.34;2081257;28;19922;-69
2022/12/02 00:50:15;;;;;;;;;;;;;;;1.22;100.00;102599.06;2091010;28;20018;-70
2022/12/02 00:51:16;;;;;;;;;;;;;;;1.20;100.00;102601.63;2089943;28;21629;-70
2022/12/02 00:52:18;;;;;;;;;;;;;;;1.20;100.00;102595.44;2080360;28;30672;-70
2022/12/02 00:53:19;;;;;;;;;;;;;;;1.20;100.00;102600.72;2080864;28;21917;-70
2022/12/02 00:54:21;;;;;;;;;;;;;;;1.20;100.00;102600.72;2090296;28;20250;-71
2022/12/02 00:55:22;;;;;;;;;;;;;;;1.18;100.00;102600.66;2097618;28;22580;-70
2022/12/02 00:56:26;;;;;;;;;;;;;;;1.19;100.00;102594.56;2098558;28;19921;-71
2022/12/02 00:57:28;;;;;;;;;;;;;;;1.18;100.00;102592.75;2098436;28;20798;-70
2022/12/02 00:58:30;;;;;;;;;;;;;;;1.19;100.00;102596.31;2098567;28;19928;-71
2022/12/02 00:59:31;;;;;;;;;;;;;;;1.19;100.00;102593.66;2098592;28;19932;-70
2022/12/02 01:00:33;;;;;;;;;;;;;;;1.19;100.00;102591.03;2088884;28;33482;-70
2022/12/02 01:01:35;;;;;;;;;;;;;;;1.20;100.00;102595.44;2088962;28;31617;-71
2022/12/02 01:02:40;;;;;;;;;;;;;;;1.20;100.00;102590.19;2098038;28;20702;-71
2022/12/02 01:03:42;;;;;;;;;;;;;;;1.19;100.00;102589.28;2097960;28;27964;-70
2022/12/02 01:04:46;;;;;;;;;;;;;;;1.20;100.00;102592.81;2097797;28;32358;-70
2022/12/02 01:05:49;;;;;;;;;;;;;;;1.21;100.00;102592.00;2098245;28;21471;-71
2022/12/02 01:06:51;;;;;;;;;;;;;;;1.20;100.00;102585.78;2097896;28;26268;-70
2022/12/02 01:07:52;;;;;;;;;;;;;;;1.20;100.00;102591.06;2097319;28;19924;-70
2022/12/02 01:08:54;;;;;;;;;;;;;;;1.20;100.00;102583.16;2096958;28;28270;-71
2022/12/02 01:09:55;;;;;;;;;;;;;;;1.20;100.00;102580.53;2097726;28;29418;-70
2022/12/02 01:10:57;;;;;;;;;;;;;;;1.21;100.00;102589.34;2089220;28;19933;-70
2022/12/02 01:11:59;;;;;;;;;;;;;;;1.19;100.00;102575.22;2080884;28;24477;-71
2022/12/02 01:13:01;;;;;;;;;;;;;;;1.18;100.00;102576.91;2089329;28;19928;-71
2022/12/02 01:14:02;;;;;;;;;;;;;;;1.20;100.00;102579.63;2098493;28;20788;-71
2022/12/02 01:15:04;;;;;;;;;;;;;;;1.20;100.00;102580.53;2097558;28;33061;-71
2022/12/02 01:16:06;;;;;;;;;;;;;;;1.21;100.00;102581.44;2098511;28;19925;-70
2022/12/02 01:17:08;;;;;;;;;;;;;;;1.20;100.00;102583.16;2097269;28;28151;-71
2022/12/02 01:18:09;;;;;;;;;;;;;;;1.20;100.00;102579.63;2097320;28;32393;-71
2022/12/02 01:19:13;;;;;;;;;;;;;;;1.20;100.00;102587.53;2098663;28;19936;-70
2022/12/02 01:20:15;;;;;;;;;;;;;;;1.21;100.00;102582.34;2097717;28;35407;-71
2022/12/02 01:21:18;;;;;;;;;;;;;;;1.21;100.00;102581.44;2098278;28;20861;-71
2022/12/02 01:22:22;;;;;;;;;;;;;;;1.21;100.00;102594.63;2098742;28;20686;-71
2022/12/02 01:23:24;;;;;;;;;;;;;;;1.20;100.00;102590.19;2098154;28;19929;-69
2022/12/02 01:24:26;;;;;;;;;;;;;;;1.20;100.00;102590.19;2098361;28;19929;-71
2022/12/02 01:25:27;;;;;;;;;;;;;;;1.21;100.00;102592.88;2097442;28;36949;-70
2022/12/02 01:26:29;;;;;;;;;;;;;;;1.22;100.00;102592.06;2089071;28;20002;-71
2022/12/02 01:27:32;;;;;;;;;;;;;;;1.22;100.00;102592.06;2080968;28;20879;-71
2022/12/02 01:28:34;;;;;;;;;;;;;;;1.22;100.00;102588.50;2088766;28;33051;-71
2022/12/02 01:29:35;;;;;;;;;;;;;;;1.23;100.00;102592.94;2097998;28;30382;-70
2022/12/02 01:30:40;;;;;;;;;;;;;;;1.23;100.00;102607.03;2088470;28;31300;-70
2022/12/02 01:31:41;;;;;;;;;;;;;;;1.21;100.00;102590.25;2089076;28;28216;-70
2022/12/02 01:32:43;;;;;;;;;;;;;;;1.22;100.00;102594.69;2097517;28;27788;-71
2022/12/02 01:33:45;;;;;;;;;;;;;;;1.22;100.00;102593.78;2098215;28;34311;-71
2022/12/02 01:34:46;;;;;;;;;;;;;;;1.22;100.00;102591.13;2097715;28;34005;-70
2022/12/02 01:35:49;;;;;;;;;;;;;;;1.23;100.00;102598.22;2098318;28;19998;-70
2022/12/02 01:36:51;;;;;;;;;;;;;;;1.22;100.00;102589.44;2096974;28;32413;-71
2022/12/02 01:37:52;;;;;;;;;;;;;;;1.23;100.00;102601.75;2097092;28;22177;-70
2022/12/02 01:38:54;;;;;;;;;;;;;;;1.24;100.00;102595.66;2097144;28;24149;-71
2022/12/02 01:39:56;;;;;;;;;;;;;;;1.24;100.00;102594.75;2098047;28;20052;-71
2022/12/02 01:40:58;;;;;;;;;;;;;;;1.24;100.00;102597.38;2097640;28;24987;-70
2022/12/02 01:42:00;;;;;;;;;;;;;;;1.23;100.00;102601.75;2097534;28;25561;-70
2022/12/02 01:43:01;;;;;;;;;;;;;;;1.23;100.00;102593.84;2097948;28;19928;-71
2022/12/02 01:44:03;;;;;;;;;;;;;;;1.22;100.00;102585.88;2098235;28;19932;-70
2022/12/02 01:45:07;;;;;;;;;;;;;;;1.23;100.00;102585.03;2097903;28;29784;-71
2022/12/02 01:46:09;;;;;;;;;;;;;;;1.24;100.00;102589.47;2097570;28;31703;-70
2022/12/02 01:47:10;;;;;;;;;;;;;;;1.23;100.00;102585.03;2097711;28;32784;-70
2022/12/02 01:48:12;;;;;;;;;;;;;;;1.23;100.00;102587.69;2088624;28;31008;-71
2022/12/02 01:49:14;;;;;;;;;;;;;;;1.21;100.00;102582.34;2089096;28;20792;-71
2022/12/02 01:50:17;;;;;;;;;;;;;;;1.20;100.00;102582.25;2097969;28;24234;-71
2022/12/02 01:51:18;;;;;;;;;;;;;;;1.19;100.00;102586.66;2097651;28;21150;-71
2022/12/02 01:52:20;;;;;;;;;;;;;;;1.19;100.00;102573.47;2097728;28;19931;-71
2022/12/02 01:53:22;;;;;;;;;;;;;;;1.17;100.00;102584.75;2096609;28;39048;-71
2022/12/02 01:54:24;;;;;;;;;;;;;;;1.17;100.00;102585.69;2088254;28;34303;-71
2022/12/02 01:55:27;;;;;;;;;;;;;;;1.17;100.00;102584.75;2088861;28;19932;-71
2022/12/02 01:56:29;;;;;;;;;;;;;;;1.17;100.00;102576.84;2097905;28;30912;-71
2022/12/02 01:57:30;;;;;;;;;;;;;;;1.17;100.00;102584.75;2089112;28;19921;-70
2022/12/02 01:58:32;;;;;;;;;;;;;;;1.16;100.00;102583.88;2079940;28;19921;-70
2022/12/02 01:59:33;;;;;;;;;;;;;;;1.13;100.00;102578.47;2080397;28;26552;-71
2022/12/02 02:00:35;;;;;;;;;;;;;;;1.13;100.00;102579.38;2080306;28;33232;-71
2022/12/02 02:01:37;;;;;;;;;;;;;;;1.11;100.00;102582.78;2089240;28;19991;-71
2022/12/02 02:02:40;;;;;;;;;;;;;;;1.10;100.00;102576.59;2088555;28;19921;-71
2022/12/02 02:03:41;;;;;;;;;;;;;;;1.11;100.00;102575.78;2089162;28;26293;-69
2022/12/02 02:04:43;;;;;;;;;;;;;;;1.11;100.00;102570.50;2098270;28;19925;-71
2022/12/02 02:05:47;;;;;;;;;;;;;;;1.09;100.00;102582.69;2088986;28;20780;-69
2022/12/02 02:06:48;;;;;;;;;;;;;;;1.09;100.00;102568.63;2088772;28;32197;-70
2022/12/02 02:07:53;;;;;;;;;;;;;;;1.10;100.00;102567.81;2097425;28;19960;-70
2022/12/02 02:08:56;;;;;;;;;;;;;;;1.09;100.00;102573.91;2097025;28;19929;-70
2022/12/02 02:09:58;;;;;;;;;;;;;;;1.07;100.00;102563.28;2088657;28;19929;-70
2022/12/02 02:11:01;;;;;;;;;;;;;;;1.06;100.00;102555.28;2089325;28;19925;-71
2022/12/02 02:12:05;;;;;;;;;;;;;;;1.07;100.00;102559.75;2097519;28;29526;-70
2022/12/02 02:13:09;;;;;;;;;;;;;;;1.06;100.00;102558.84;2088847;28;19924;-71
2022/12/02 02:14:12;;;;;;;;;;;;;;;1.07;100.00;102559.75;2081266;28;20045;-71
2022/12/02 02:15:15;;;;;;;;;;;;;;;1.06;100.00;102566.78;2089005;28;19925;-71
2022/12/02 02:16:21;;;;;;;;;;;;;;;1.06;100.00;102558.84;2097451;28;28472;-70
2022/12/02 02:17:23;;;;;;;;;;;;;;;1.06;100.00;102561.50;2098216;28;20797;-71
2022/12/02 02:18:25;;;;;;;;;;;;;;;1.07;100.00;102565.03;2088705;28;37085;-70
2022/12/02 02:19:26;;;;;;;;;;;;;;;1.06;100.00;102566.78;2088953;28;20385;-71
2022/12/02 02:20:28;;;;;;;;;;;;;;;1.05;100.00;102557.03;2097065;28;19936;-71
2022/12/02 02:21:35;;;;;;;;;;;;;;;1.04;100.00;102557.91;2096508;28;39609;-71
2022/12/02 02:22:52;;;;;;;;;;;;;;;1.05;100.00;102567.59;2098153;28;19924;-71
2022/12/02 02:23:55;;;;;;;;;;;;;;;1.04;100.00;102563.19;2088975;28;19941;-71
2022/12/02 02:24:57;;;;;;;;;;;;;;;1.05;100.00;102567.59;2088912;28;20816;-71
2022/12/02 02:26:02;;;;;;;;;;;;;;;1.04;100.00;102557.91;2098003;28;20786;-69
2022/12/02 02:27:07;;;;;;;;;;;;;;;1.04;100.00;102560.53;2097256;28;19933;-70
2022/12/02 02:28:10;;;;;;;;;;;;;;;1.05;100.00;102559.69;2088898;28;19925;-70
2022/12/02 02:29:12;;;;;;;;;;;;;;;1.06;100.00;102560.56;2089053;28;19929;-70
2022/12/02 02:30:14;;;;;;;;;;;;;;;1.06;100.00;102557.94;2088649;28;19976;-70
2022/12/02 02:31:16;;;;;;;;;;;;;;;1.06;100.00;102563.22;2080620;28;19995;-71
2022/12/02 02:32:19;;;;;;;;;;;;;;;1.06;100.00;102556.22;2080617;28;19933;-70
2022/12/02 02:33:24;;;;;;;;;;;;;;;1.07;100.00;102558.00;2088807;28;20016;-71
2022/12/02 02:34:26;;;;;;;;;;;;;;;1.08;100.00;102557.19;2088723;28;22520;-70
2022/12/02 02:35:28;;;;;;;;;;;;;;;1.08;100.00;102553.66;2088768;28;21547;-71
2022/12/02 02:36:30;;;;;;;;;;;;;;;1.07;100.00;102543.94;2088999;28;20006;-71
2022/12/02 02:37:32;;;;;;;;;;;;;;;1.06;100.00;102550.94;2089292;28;20255;-71
2022/12/02 02:38:37;;;;;;;;;;;;;;;1.07;100.00;102547.44;2097793;28;20768;-71
2022/12/02 02:39:39;;;;;;;;;;;;;;;1.06;100.00;102552.66;2088598;28;19932;-71
2022/12/02 02:40:42;;;;;;;;;;;;;;;1.04;100.00;102550.00;2089145;28;21005;-71
2022/12/02 02:41:44;;;;;;;;;;;;;;;1.06;100.00;102542.09;2089349;28;20848;-71
2022/12/02 02:42:52;;;;;;;;;;;;;;;1.03;100.00;102550.81;2080729;28;20001;-71
2022/12/02 02:43:54;;;;;;;;;;;;;;;1.02;100.00;102554.25;2089442;28;34731;-71
2022/12/02 02:44:59;;;;;;;;;;;;;;;1.00;100.00;102550.66;2098002;28;19928;-71
2022/12/02 02:46:02;;;;;;;;;;;;;;;1.01;100.00;102559.50;2088284;28;32564;-70
2022/12/02 02:47:13;;;;;;;;;;;;;;;1.00;100.00;102550.66;2081927;28;20125;-70
2022/12/02 02:48:17;;;;;;;;;;;;;;;0.97;100.00;102550.56;2088918;28;19932;-70
2022/12/02 02:49:19;;;;;;;;;;;;;;;0.97;100.00;102553.19;2097321;28;19921;-70
2022/12/02 02:50:22;;;;;;;;;;;;;;;0.97;100.00;102557.56;2097983;28;20047;-70
2022/12/02 02:51:26;;;;;;;;;;;;;;;0.97;100.00;102547.94;2096971;28;29503;-70
2022/12/02 02:52:28;;;;;;;;;;;;;;;0.97;100.00;102550.56;2088658;28;20054;-70
2022/12/02 02:53:30;;;;;;;;;;;;;;;0.95;100.00;102549.56;2088479;28;19929;-70
2022/12/02 02:54:32;;;;;;;;;;;;;;;0.96;100.00;102548.75;2088625;28;20031;-69
2022/12/02 02:55:36;;;;;;;;;;;;;;;0.96;100.00;102543.47;2088253;28;19925;-70
2022/12/02 02:56:38;;;;;;;;;;;;;;;0.96;100.00;102548.75;2096099;28;19933;-70
2022/12/02 02:57:40;;;;;;;;;;;;;;;0.95;100.00;102542.59;2096819;28;19925;-70
2022/12/02 02:58:41;;;;;;;;;;;;;;;0.95;100.00;102552.19;2097580;28;24351;-70
2022/12/02 02:59:44;;;;;;;;;;;;;;;0.95;100.00;102541.66;2088396;28;26510;-70
2022/12/02 03:01:09;;;;;;;;;;;;;;;0.95;100.00;102541.66;2075578;28;20715;-70
2022/12/02 03:02:14;;;;;;;;;;;;;;;0.96;100.00;102551.38;2076649;28;19937;-70
2022/12/02 03:03:19;;;;;;;;;;;;;;;0.94;100.00;102546.03;2072301;28;19957;-70
2022/12/02 03:04:23;;;;;;;;;;;;;;;0.95;100.00;102526.75;2081428;28;20778;-70
2022/12/02 03:05:26;;;;;;;;;;;;;;;0.96;100.00;102538.19;2088698;28;20003;-70
2022/12/02 03:06:31;;;;;;;;;;;;;;;0.95;100.00;102536.38;2080167;28;20056;-70
2022/12/02 03:07:33;;;;;;;;;;;;;;;0.95;100.00;102536.38;2080771;28;19933;-70
2022/12/02 03:08:39;;;;;;;;;;;;;;;0.94;100.00;102535.50;2087893;28;28652;-70
2022/12/02 03:09:41;;;;;;;;;;;;;;;0.94;100.00;102535.50;2080416;28;20005;-70
2022/12/02 03:10:44;;;;;;;;;;;;;;;0.95;100.00;102534.66;2071762;28;20716;-70
2022/12/02 03:11:49;;;;;;;;;;;;;;;0.96;100.00;102527.66;2079801;28;32598;-70
2022/12/02 03:12:52;;;;;;;;;;;;;;;0.95;100.00;102526.75;2088679;28;19929;-70
2022/12/02 03:13:57;;;;;;;;;;;;;;;0.96;100.00;102527.66;2087815;28;32116;-70
2022/12/02 03:15:02;;;;;;;;;;;;;;;0.95;100.00;102525.84;2088567;28;29294;-69
2022/12/02 03:16:07;;;;;;;;;;;;;;;0.96;100.00;102532.91;2088457;28;34988;-70
2022/12/02 03:17:08;;;;;;;;;;;;;;;0.96;100.00;102530.28;2088259;28;35488;-70
2022/12/02 03:18:11;;;;;;;;;;;;;;;0.95;100.00;102528.47;2089269;28;19972;-70
2022/12/02 03:19:13;;;;;;;;;;;;;;;0.94;100.00;102532.84;2088431;28;35219;-70
2022/12/02 03:20:15;;;;;;;;;;;;;;;0.95;100.00;102526.75;2088274;28;37962;-69
2022/12/02 03:21:18;;;;;;;;;;;;;;;0.94;100.00;102532.84;2089055;28;20724;-70
2022/12/02 03:22:23;;;;;;;;;;;;;;;0.95;100.00;102536.38;2088174;28;40107;-69
2022/12/02 03:23:25;;;;;;;;;;;;;;;0.93;100.00;102527.50;2088140;28;28458;-69
2022/12/02 03:24:29;;;;;;;;;;;;;;;0.95;100.00;102531.09;2088703;28;37748;-70
2022/12/02 03:25:32;;;;;;;;;;;;;;;0.94;100.00;102534.59;2097224;28;20734;-69
2022/12/02 03:26:34;;;;;;;;;;;;;;;0.94;100.00;102534.59;2097594;28;19928;-70
2022/12/02 03:27:36;;;;;;;;;;;;;;;0.95;100.00;102525.84;2096239;28;39953;-69
2022/12/02 03:28:40;;;;;;;;;;;;;;;0.94;100.00;102530.22;2096612;28;37679;-70
2022/12/02 03:29:42;;;;;;;;;;;;;;;0.93;100.00;102524.88;2096845;28;37597;-70
2022/12/02 03:30:44;;;;;;;;;;;;;;;0.93;100.00;102524.88;2096552;28;41926;-69
2022/12/02 03:31:46;;;;;;;;;;;;;;;0.93;100.00;102519.59;2097003;28;22557;-69
2022/12/02 03:32:47;;;;;;;;;;;;;;;0.92;100.00;102528.38;2096739;28;33563;-70
2022/12/02 03:33:51;;;;;;;;;;;;;;;0.93;100.00;102533.72;2097306;28;20726;-69
2022/12/02 03:34:53;;;;;;;;;;;;;;;0.93;100.00;102522.22;2096718;28;35640;-69
2022/12/02 03:35:54;;;;;;;;;;;;;;;0.92;100.00;102523.09;2097419;28;19955;-70
2022/12/02 03:36:57;;;;;;;;;;;;;;;0.92;100.00;102523.09;2096990;28;33831;-69
2022/12/02 03:37:59;;;;;;;;;;;;;;;0.93;100.00;102527.50;2096667;28;38105;-69
2022/12/02 03:39:01;;;;;;;;;;;;;;;0.92;100.00;102528.38;2097101;28;31210;-69
2022/12/02 03:40:03;;;;;;;;;;;;;;;0.94;100.00;102526.69;2096342;28;38642;-70
2022/12/02 03:41:06;;;;;;;;;;;;;;;0.91;100.00;102519.53;2097048;28;20803;-70
2022/12/02 03:42:08;;;;;;;;;;;;;;;0.92;100.00;102525.72;2096521;28;34626;-69
2022/12/02 03:43:09;;;;;;;;;;;;;;;0.91;100.00;102529.19;2096701;28;32063;-69
2022/12/02 03:44:11;;;;;;;;;;;;;;;0.91;100.00;102524.81;2096748;28;37949;-70
2022/12/02 03:45:13;;;;;;;;;;;;;;;0.92;100.00;102521.34;2096734;28;37814;-69
2022/12/02 03:46:18;;;;;;;;;;;;;;;0.93;100.00;102519.59;2096229;28;36471;-70
2022/12/02 03:47:19;;;;;;;;;;;;;;;0.91;100.00;102523.91;2087051;28;37596;-70
2022/12/02 03:48:23;;;;;;;;;;;;;;;0.92;100.00;102523.97;2088143;28;38004;-70
2022/12/02 03:49:28;;;;;;;;;;;;;;;0.91;100.00;102521.28;2096652;28;19938;-70
2022/12/02 03:50:30;;;;;;;;;;;;;;;0.90;100.00;102515.09;2096299;28;35874;-70
2022/12/02 03:51:32;;;;;;;;;;;;;;;0.91;100.00;102526.56;2097194;28;19935;-70
2022/12/02 03:52:35;;;;;;;;;;;;;;;0.90;100.00;102524.78;2096684;28;33986;-70
2022/12/02 03:53:39;;;;;;;;;;;;;;;0.89;100.00;102515.03;2096707;28;33036;-70
2022/12/02 03:54:41;;;;;;;;;;;;;;;0.89;100.00;102515.94;2096222;28;37180;-70
2022/12/02 03:55:42;;;;;;;;;;;;;;;0.89;100.00;102513.28;2096610;28;34023;-70
2022/12/02 03:56:44;;;;;;;;;;;;;;;0.88;100.00;102515.88;2096645;28;33107;-70
2022/12/02 03:57:46;;;;;;;;;;;;;;;0.87;100.00;102512.34;2097070;28;28995;-70
2022/12/02 03:58:52;;;;;;;;;;;;;;;0.87;100.00;102512.34;2096798;28;33801;-70
2022/12/02 03:59:55;;;;;;;;;;;;;;;0.86;100.00;102510.56;2096640;28;33326;-70
2022/12/02 04:00:56;;;;;;;;;;;;;;;0.86;100.00;102509.63;2097228;28;32814;-70
2022/12/02 04:02:00;;;;;;;;;;;;;;;0.85;100.00;102507.84;2096295;28;36730;-70
2022/12/02 04:03:02;;;;;;;;;;;;;;;0.86;100.00;102512.25;2096598;28;34478;-70
2022/12/02 04:04:04;;;;;;;;;;;;;;;0.87;100.00;102511.44;2096335;28;38552;-70
2022/12/02 04:05:06;;;;;;;;;;;;;;;0.87;100.00;102511.44;2096334;28;38640;-70
2022/12/02 04:06:07;;;;;;;;;;;;;;;0.87;100.00;102509.69;2096736;28;33238;-70
2022/12/02 04:07:09;;;;;;;;;;;;;;;0.87;100.00;102506.16;2096510;28;31810;-70
2022/12/02 04:08:10;;;;;;;;;;;;;;;0.89;100.00;102505.38;2096724;28;35614;-70
2022/12/02 04:09:15;;;;;;;;;;;;;;;0.87;100.00;102507.06;2096848;28;19998;-70
2022/12/02 04:10:16;;;;;;;;;;;;;;;0.88;100.00;102507.94;2097055;28;19936;-70
2022/12/02 04:11:18;;;;;;;;;;;;;;;0.89;100.00;102515.03;2089994;28;31270;-70
2022/12/02 04:12:20;;;;;;;;;;;;;;;0.88;100.00;102503.59;2079177;28;34079;-70
2022/12/02 04:13:21;;;;;;;;;;;;;;;0.87;100.00;102504.44;2079285;28;37789;-70
2022/12/02 04:14:23;;;;;;;;;;;;;;;0.86;100.00;102491.16;2088274;28;32116;-70
2022/12/02 04:15:24;;;;;;;;;;;;;;;0.86;100.00;102509.63;2087821;28;34264;-70
2022/12/02 04:16:26;;;;;;;;;;;;;;;0.85;100.00;102507.84;2089108;28;20774;-70
2022/12/02 04:17:27;;;;;;;;;;;;;;;0.83;100.00;102506.88;2088446;28;32031;-70
2022/12/02 04:18:29;;;;;;;;;;;;;;;0.83;100.00;102499.88;2088286;28;28659;-70
2022/12/02 04:19:31;;;;;;;;;;;;;;;0.82;100.00;102511.25;2088156;28;31647;-70
2022/12/02 04:20:32;;;;;;;;;;;;;;;0.83;100.00;102505.13;2088269;28;32556;-70
2022/12/02 04:21:34;;;;;;;;;;;;;;;0.82;100.00;102503.31;2089209;28;19932;-70
2022/12/02 04:22:35;;;;;;;;;;;;;;;0.83;100.00;102502.50;2089604;28;34321;-70
2022/12/02 04:23:39;;;;;;;;;;;;;;;0.81;100.00;102503.25;2090346;28;20715;-70
2022/12/02 04:24:41;;;;;;;;;;;;;;;0.80;100.00;102498.84;2091885;28;29703;-70
2022/12/02 04:25:42;;;;;;;;;;;;;;;0.81;100.00;102498.91;2097657;28;32748;-70
2022/12/02 04:26:44;;;;;;;;;;;;;;;0.81;100.00;102495.34;2098580;28;20070;-71
2022/12/02 04:27:45;;;;;;;;;;;;;;;0.78;100.00;102500.50;2097644;28;40269;-70
2022/12/02 04:28:47;;;;;;;;;;;;;;;0.75;100.00;102502.19;2098187;28;35111;-70
2022/12/02 04:29:49;;;;;;;;;;;;;;;0.76;100.00;102498.69;2098282;28;23689;-70
2022/12/02 04:30:51;;;;;;;;;;;;;;;0.77;100.00;102496.94;2098128;28;35576;-70
2022/12/02 04:31:52;;;;;;;;;;;;;;;0.76;100.00;102498.69;2098430;28;21269;-70
2022/12/02 04:32:54;;;;;;;;;;;;;;;0.75;100.00;102499.56;2098506;28;30311;-70
2022/12/02 04:33:55;;;;;;;;;;;;;;;0.77;100.00;102489.03;2098207;28;19932;-70
2022/12/02 04:34:57;;;;;;;;;;;;;;;0.76;100.00;102493.44;2098517;28;27181;-70
2022/12/02 04:35:59;;;;;;;;;;;;;;;0.75;100.00;102493.34;2098376;28;19920;-71
2022/12/02 04:37:01;;;;;;;;;;;;;;;0.75;100.00;102490.72;2098167;28;29034;-70
2022/12/02 04:38:05;;;;;;;;;;;;;;;0.74;100.00;102495.09;2098721;28;19932;-70
2022/12/02 04:39:12;;;;;;;;;;;;;;;0.74;100.00;102499.47;2098493;28;24969;-70
2022/12/02 04:40:13;;;;;;;;;;;;;;;0.72;100.00;102490.63;2097850;28;36590;-70
2022/12/02 04:41:15;;;;;;;;;;;;;;;0.71;100.00;102488.81;2099744;28;20805;-70
2022/12/02 04:42:17;;;;;;;;;;;;;;;0.72;100.00;102488.88;2098464;28;38458;-70
2022/12/02 04:43:18;;;;;;;;;;;;;;;0.72;100.00;102490.63;2098103;28;30284;-70
2022/12/02 04:44:20;;;;;;;;;;;;;;;0.71;100.00;102489.69;2097643;28;32341;-70
2022/12/02 04:45:21;;;;;;;;;;;;;;;0.72;100.00;102495.88;2098038;28;32264;-70
2022/12/02 04:46:23;;;;;;;;;;;;;;;0.71;100.00;102486.16;2098669;28;19913;-70
2022/12/02 04:47:27;;;;;;;;;;;;;;;0.72;100.00;102482.72;2097695;28;40908;-70
2022/12/02 04:48:28;;;;;;;;;;;;;;;0.70;100.00;102482.63;2097914;28;29940;-70
2022/12/02 04:49:30;;;;;;;;;;;;;;;0.71;100.00;102475.63;2097858;28;32103;-70
2022/12/02 04:50:31;;;;;;;;;;;;;;;0.70;100.00;102482.63;2097856;28;37570;-70
2022/12/02 04:51:34;;;;;;;;;;;;;;;0.68;100.00;102492.22;2098497;28;19921;-70
2022/12/02 04:52:35;;;;;;;;;;;;;;;0.69;100.00;102486.09;2097332;28;33404;-70
2022/12/02 04:53:39;;;;;;;;;;;;;;;0.71;100.00;102487.06;2097482;28;26510;-70
2022/12/02 04:54:40;;;;;;;;;;;;;;;0.68;100.00;102484.31;2098592;28;19995;-69
2022/12/02 04:55:45;;;;;;;;;;;;;;;0.68;100.00;102486.94;2097683;28;39685;-70
2022/12/02 04:56:46;;;;;;;;;;;;;;;0.68;100.00;102480.75;2097909;28;30304;-70
2022/12/02 04:57:48;;;;;;;;;;;;;;;0.67;100.00;102474.59;2098120;28;33804;-70
2022/12/02 04:58:50;;;;;;;;;;;;;;;0.68;100.00;102486.03;2098203;28;34214;-70
2022/12/02 04:59:51;;;;;;;;;;;;;;;0.68;100.00;102480.75;2098420;28;19928;-71
2022/12/02 05:00:53;;;;;;;;;;;;;;;0.68;100.00;102481.69;2097771;28;33756;-71
2022/12/02 05:01:55;;;;;;;;;;;;;;;0.69;100.00;102487.84;2098442;28;19925;-71
2022/12/02 05:02:56;;;;;;;;;;;;;;;0.68;100.00;102483.38;2098119;28;28140;-71
2022/12/02 05:04:00;;;;;;;;;;;;;;;0.67;100.00;102487.78;2097711;28;39655;-70
2022/12/02 05:05:03;;;;;;;;;;;;;;;0.68;100.00;102480.75;2098627;28;20022;-70
2022/12/02 05:06:05;;;;;;;;;;;;;;;0.68;100.00;102488.66;2097924;28;31937;-70
2022/12/02 05:07:07;;;;;;;;;;;;;;;0.67;100.00;102482.50;2098065;28;33243;-70
2022/12/02 05:08:08;;;;;;;;;;;;;;;0.67;100.00;102481.59;2097591;28;39503;-70
2022/12/02 05:09:10;;;;;;;;;;;;;;;0.67;100.00;102477.22;2097696;28;36774;-71
2022/12/02 05:10:14;;;;;;;;;;;;;;;0.66;100.00;102485.97;2097820;28;39657;-70
2022/12/02 05:11:15;;;;;;;;;;;;;;;0.67;100.00;102486.88;2096652;28;20002;-70
2022/12/02 05:12:17;;;;;;;;;;;;;;;0.66;100.00;102475.41;2097667;28;38630;-70
2022/12/02 05:13:19;;;;;;;;;;;;;;;0.67;100.00;102485.13;2097791;28;32690;-70
2022/12/02 05:14:20;;;;;;;;;;;;;;;0.67;100.00;102474.59;2097956;28;36619;-70
2022/12/02 05:15:22;;;;;;;;;;;;;;;0.68;100.00;102479.03;2097797;28;38022;-70
2022/12/02 05:16:23;;;;;;;;;;;;;;;0.68;100.00;102479.03;2097831;28;32663;-70
2022/12/02 05:17:25;;;;;;;;;;;;;;;0.67;100.00;102479.88;2098306;28;29225;-71
2022/12/02 05:18:26;;;;;;;;;;;;;;;0.68;100.00;102483.38;2088705;28;40792;-70
2022/12/02 05:19:28;;;;;;;;;;;;;;;0.68;100.00;102479.03;2088891;28;36274;-70
2022/12/02 05:20:29;;;;;;;;;;;;;;;0.67;100.00;102493.03;2098339;28;30431;-70
2022/12/02 05:21:31;;;;;;;;;;;;;;;0.68;100.00;102484.31;2097210;28;39214;-69
2022/12/02 05:22:32;;;;;;;;;;;;;;;0.68;100.00;102488.66;2097642;28;37661;-70
2022/12/02 05:23:34;;;;;;;;;;;;;;;0.68;100.00;102479.03;2097619;28;34588;-69
2022/12/02 05:24:35;;;;;;;;;;;;;;;0.68;100.00;102473.78;2096752;28;36892;-69
2022/12/02 05:25:37;;;;;;;;;;;;;;;0.68;100.00;102479.03;2097214;28;26056;-69